Corumbá International Airport
SBCR : rendu visible

Aérodrome :











RETROUVEZ-NOUS SUR...

 
LOGIN :

S'inscrire | Disclaimer

   EN    FR    IT 

 









Légende :    VFR   VFR Marginal   IFR   IFR Intensif   IFR Très Intensif
Visi : 
Plafond : 
>= 8 km
>= 3000ft
5 à 8 km
1000 à 3000 ft
1500m à 5 km
500 à 1000 ft
800 à 1500m
200 à 500 ft
< 800m
< 200 ft
Symboles :   Orages  Brouillard  Fortes neiges  Fortes précipitations  Vent > 20 kt






- Altitude de l'aérodrome : 461 ft
- Code IATA : CMG


SBCR - Corumbá International

METAR N/A
TAF TAF SBCR
Valide du 21 à 00h jusqu'au 22 à 00h UTC


202200Z 2100/2124 36007KT 9999 SCT030 FEW040TCU TN24/2108Z TX34/2117Z
BECMG 2100/2102 35005KT 8000 FEW015
BECMG 2110/2112 03007KT 9999 BKN020 FEW040TCU
BECMG 2117/2120 8000 TSRA SCT030 FEW040CB RMK PEA



MET'MAP, la Météo Aéronautique d'un coup d'oeil ! - Copyright ORBIFLY Décembre 2007 - Disclaimer

ORBIFLY MET'MAP TEAM :

Programmation & Développement : Alexandra Zaïnal
Sur une idée originale de : Baudouin d'Aumeries
Assistance à la programmation : Marc-Olivier Méhu
Soutien technique & logistique : Manuel Goepfert

Contact : metmap@orbifly.com




SOURCES & CREDITS :

   NOAA       Earth
Advisory